Pagrindinis puslapis
METAR-TAF:

METAR-TAF

Oro uostai :

Bisha, Saudo Arabija

platuma: 19-59N, ilguma: 042-37E, Aukštis: 1167 m

Dabartinis oras

Ataskaita buvo paskelbta 56 minutes, ne 13:00 UTC
Vėjas 10 kt iš Šiaurės Rytų
Temperatūra 36°C
Drėgmė 13%
Slėgis 1012 hPa
Matomumas 10 km arba daugiau
nėra debesų žemiau 1500 m ir nėra kamuolinių lietaus debesų

METAR: OEBH 191300Z 04010KT CAVOK 36/03 Q1012 NOSIG

Laikas: 16:56 (13:56 UTC)

Prognozė

Ataskaita buvo paskelbta 2 valandos ir 56 minutes, ne 11:00 UTC
Prognozė galioja nuo 19 metu 12 UTC su 20 metu 18 UTC
Vėjas 10 kt iš Rytų/Šiaurės Rytų
Matomumas 10 km arba daugiau
Mažai debesys ne aukštis 3000 ft
Tapsmas
nuo 19 metu 20 UTC su 19 metu 22 UTC
Vėjas 10 kt iš Vakarų/Šiaurės Vakarų

TAF: OEBH 191100Z 1912/2018 07010KT 9999 FEW030 BECMG 1920/1922 30010KT

Orai ataskaitas ir orų prognozės (METAR, TAF).

turimą stotys yra geltonos ir raudonos taškus žemėlapyje.

Perkelti pele per norėdami pamatyti stoties vardą.

Tada spustelėkite, norėdami matyti oro stebėjimo ir prognozės.

Norėdami pakeisti žemėlapį: spustelėkite ant žalios mygtukų su juodo kryžiaus žemyn,; žalią mygtuką su brūkšneliu, jei norite nutolinti; arba žalių rodyklių gretimoms žemėlapius.


METAR-TAF: